sensor_id;sensor_type;location;lat;lon;timestamp;P1;durP1;ratioP1;P2;durP2;ratioP2
8279;SDS011;8335;42.646;23.380;2023-08-31T00:01:34;5.80;;;2.80;;
8279;SDS011;8335;42.646;23.380;2023-08-31T00:04:00;5.75;;;3.35;;
8279;SDS011;8335;42.646;23.380;2023-08-31T00:06:27;5.80;;;2.90;;
8279;SDS011;8335;42.646;23.380;2023-08-31T00:08:54;6.40;;;3.00;;
8279;SDS011;8335;42.646;23.380;2023-08-31T00:11:21;5.28;;;2.88;;
8279;SDS011;8335;42.646;23.380;2023-08-31T00:13:49;5.80;;;2.65;;
8279;SDS011;8335;42.646;23.380;2023-08-31T00:16:17;5.35;;;2.85;;
8279;SDS011;8335;42.646;23.380;2023-08-31T00:18:45;5.15;;;2.70;;
8279;SDS011;8335;42.646;23.380;2023-08-31T00:21:12;6.85;;;2.90;;
8279;SDS011;8335;42.646;23.380;2023-08-31T00:23:38;4.78;;;3.15;;
8279;SDS011;8335;42.646;23.380;2023-08-31T00:26:05;5.68;;;2.53;;
8279;SDS011;8335;42.646;23.380;2023-08-31T00:28:34;6.40;;;2.83;;
8279;SDS011;8335;42.646;23.380;2023-08-31T00:31:01;7.55;;;3.08;;
8279;SDS011;8335;42.646;23.380;2023-08-31T00:33:29;5.18;;;3.05;;
8279;SDS011;8335;42.646;23.380;2023-08-31T00:36:00;6.93;;;2.90;;
8279;SDS011;8335;42.646;23.380;2023-08-31T00:38:28;6.10;;;2.60;;
8279;SDS011;8335;42.646;23.380;2023-08-31T00:40:55;3.83;;;2.40;;
8279;SDS011;8335;42.646;23.380;2023-08-31T00:43:22;6.00;;;2.97;;
8279;SDS011;8335;42.646;23.380;2023-08-31T00:45:49;6.00;;;2.65;;
8279;SDS011;8335;42.646;23.380;2023-08-31T00:48:19;5.53;;;2.78;;
8279;SDS011;8335;42.646;23.380;2023-08-31T00:50:46;8.60;;;3.25;;
8279;SDS011;8335;42.646;23.380;2023-08-31T00:53:14;5.70;;;2.72;;
8279;SDS011;8335;42.646;23.380;2023-08-31T00:55:42;7.70;;;2.67;;
8279;SDS011;8335;42.646;23.380;2023-08-31T00:58:11;5.63;;;2.85;;
8279;SDS011;8335;42.646;23.380;2023-08-31T01:00:40;3.17;;;2.47;;
8279;SDS011;8335;42.646;23.380;2023-08-31T01:03:16;6.10;;;2.85;;
8279;SDS011;8335;42.646;23.380;2023-08-31T01:06:00;4.75;;;3.22;;
8279;SDS011;8335;42.646;23.380;2023-08-31T01:08:39;4.18;;;2.60;;
8279;SDS011;8335;42.646;23.380;2023-08-31T01:11:12;4.70;;;2.40;;
8279;SDS011;8335;42.646;23.380;2023-08-31T01:13:47;4.28;;;2.67;;
8279;SDS011;8335;42.646;23.380;2023-08-31T01:16:20;7.50;;;2.90;;
8279;SDS011;8335;42.646;23.380;2023-08-31T01:18:50;4.20;;;2.47;;
8279;SDS011;8335;42.646;23.380;2023-08-31T01:21:20;5.65;;;2.63;;
8279;SDS011;8335;42.646;23.380;2023-08-31T01:23:53;5.30;;;2.58;;
8279;SDS011;8335;42.646;23.380;2023-08-31T01:26:20;6.85;;;2.60;;
8279;SDS011;8335;42.646;23.380;2023-08-31T01:28:48;7.35;;;2.67;;
8279;SDS011;8335;42.646;23.380;2023-08-31T01:31:16;7.47;;;2.95;;
8279;SDS011;8335;42.646;23.380;2023-08-31T01:33:44;6.25;;;2.78;;
8279;SDS011;8335;42.646;23.380;2023-08-31T01:36:12;5.50;;;2.80;;
8279;SDS011;8335;42.646;23.380;2023-08-31T01:38:45;5.28;;;3.03;;
8279;SDS011;8335;42.646;23.380;2023-08-31T01:41:19;7.63;;;3.40;;
8279;SDS011;8335;42.646;23.380;2023-08-31T01:43:48;7.47;;;2.80;;
8279;SDS011;8335;42.646;23.380;2023-08-31T01:46:17;4.45;;;2.45;;
8279;SDS011;8335;42.646;23.380;2023-08-31T01:48:45;4.80;;;2.45;;
8279;SDS011;8335;42.646;23.380;2023-08-31T01:51:12;6.93;;;2.58;;
8279;SDS011;8335;42.646;23.380;2023-08-31T01:53:39;5.72;;;2.70;;
8279;SDS011;8335;42.646;23.380;2023-08-31T01:56:05;4.05;;;2.28;;
8279;SDS011;8335;42.646;23.380;2023-08-31T01:58:34;6.63;;;2.45;;
8279;SDS011;8335;42.646;23.380;2023-08-31T02:01:01;7.63;;;2.33;;
8279;SDS011;8335;42.646;23.380;2023-08-31T02:03:27;6.18;;;2.35;;
8279;SDS011;8335;42.646;23.380;2023-08-31T02:05:54;3.60;;;2.53;;
8279;SDS011;8335;42.646;23.380;2023-08-31T02:08:21;8.68;;;2.80;;
8279;SDS011;8335;42.646;23.380;2023-08-31T02:10:48;8.38;;;2.88;;
8279;SDS011;8335;42.646;23.380;2023-08-31T02:13:14;3.13;;;2.20;;
8279;SDS011;8335;42.646;23.380;2023-08-31T02:15:43;5.10;;;2.50;;
8279;SDS011;8335;42.646;23.380;2023-08-31T02:18:10;6.47;;;2.95;;
8279;SDS011;8335;42.646;23.380;2023-08-31T02:20:36;8.55;;;2.60;;
8279;SDS011;8335;42.646;23.380;2023-08-31T02:23:04;4.68;;;2.30;;
8279;SDS011;8335;42.646;23.380;2023-08-31T02:25:30;4.78;;;2.80;;
8279;SDS011;8335;42.646;23.380;2023-08-31T02:27:58;5.15;;;2.47;;
8279;SDS011;8335;42.646;23.380;2023-08-31T02:30:25;6.05;;;2.80;;
8279;SDS011;8335;42.646;23.380;2023-08-31T02:32:53;3.95;;;2.50;;
8279;SDS011;8335;42.646;23.380;2023-08-31T02:35:19;6.45;;;3.17;;
8279;SDS011;8335;42.646;23.380;2023-08-31T02:37:46;8.50;;;2.88;;
8279;SDS011;8335;42.646;23.380;2023-08-31T02:40:13;5.32;;;3.10;;
8279;SDS011;8335;42.646;23.380;2023-08-31T02:42:40;7.25;;;3.15;;
8279;SDS011;8335;42.646;23.380;2023-08-31T02:45:07;4.28;;;2.42;;
8279;SDS011;8335;42.646;23.380;2023-08-31T02:47:35;4.43;;;2.42;;
8279;SDS011;8335;42.646;23.380;2023-08-31T02:50:03;4.85;;;2.80;;
8279;SDS011;8335;42.646;23.380;2023-08-31T02:52:31;4.85;;;2.70;;
8279;SDS011;8335;42.646;23.380;2023-08-31T02:54:58;7.45;;;3.10;;
8279;SDS011;8335;42.646;23.380;2023-08-31T02:57:25;7.25;;;2.63;;
8279;SDS011;8335;42.646;23.380;2023-08-31T02:59:52;5.40;;;2.55;;
8279;SDS011;8335;42.646;23.380;2023-08-31T03:02:18;4.28;;;2.80;;
8279;SDS011;8335;42.646;23.380;2023-08-31T03:04:45;5.05;;;2.83;;
8279;SDS011;8335;42.646;23.380;2023-08-31T03:07:13;4.53;;;3.28;;
8279;SDS011;8335;42.646;23.380;2023-08-31T03:09:40;4.95;;;2.85;;
8279;SDS011;8335;42.646;23.380;2023-08-31T03:12:07;5.57;;;2.95;;
8279;SDS011;8335;42.646;23.380;2023-08-31T03:14:34;7.05;;;2.70;;
8279;SDS011;8335;42.646;23.380;2023-08-31T03:17:00;5.70;;;2.72;;
8279;SDS011;8335;42.646;23.380;2023-08-31T03:19:28;5.93;;;2.88;;
8279;SDS011;8335;42.646;23.380;2023-08-31T03:21:55;5.10;;;2.55;;
8279;SDS011;8335;42.646;23.380;2023-08-31T03:24:23;6.55;;;2.70;;
8279;SDS011;8335;42.646;23.380;2023-08-31T03:26:50;4.32;;;2.90;;
8279;SDS011;8335;42.646;23.380;2023-08-31T03:29:17;10.02;;;2.75;;
8279;SDS011;8335;42.646;23.380;2023-08-31T03:31:43;8.10;;;2.70;;
8279;SDS011;8335;42.646;23.380;2023-08-31T03:34:10;9.15;;;3.28;;
8279;SDS011;8335;42.646;23.380;2023-08-31T03:36:37;10.52;;;3.78;;
8279;SDS011;8335;42.646;23.380;2023-08-31T03:39:04;8.00;;;3.00;;
8279;SDS011;8335;42.646;23.380;2023-08-31T03:41:32;5.65;;;3.00;;
8279;SDS011;8335;42.646;23.380;2023-08-31T03:44:00;5.90;;;3.00;;
8279;SDS011;8335;42.646;23.380;2023-08-31T03:46:27;5.70;;;2.63;;
8279;SDS011;8335;42.646;23.380;2023-08-31T03:48:54;6.38;;;2.78;;
8279;SDS011;8335;42.646;23.380;2023-08-31T03:51:21;7.78;;;3.25;;
8279;SDS011;8335;42.646;23.380;2023-08-31T03:53:47;5.82;;;2.90;;
8279;SDS011;8335;42.646;23.380;2023-08-31T03:56:14;5.35;;;2.38;;
8279;SDS011;8335;42.646;23.380;2023-08-31T03:58:42;4.40;;;2.40;;
8279;SDS011;8335;42.646;23.380;2023-08-31T04:01:09;4.97;;;2.38;;
8279;SDS011;8335;42.646;23.380;2023-08-31T04:03:36;6.13;;;2.83;;
8279;SDS011;8335;42.646;23.380;2023-08-31T04:06:04;6.22;;;3.00;;
8279;SDS011;8335;42.646;23.380;2023-08-31T04:08:31;4.63;;;2.67;;
8279;SDS011;8335;42.646;23.380;2023-08-31T04:10:57;5.70;;;2.42;;
8279;SDS011;8335;42.646;23.380;2023-08-31T04:13:25;4.10;;;2.38;;
8279;SDS011;8335;42.646;23.380;2023-08-31T04:15:53;5.63;;;2.70;;
8279;SDS011;8335;42.646;23.380;2023-08-31T04:18:20;5.95;;;2.80;;
8279;SDS011;8335;42.646;23.380;2023-08-31T04:20:48;4.95;;;2.53;;
8279;SDS011;8335;42.646;23.380;2023-08-31T04:23:16;5.47;;;2.60;;
8279;SDS011;8335;42.646;23.380;2023-08-31T04:25:43;5.32;;;2.88;;
8279;SDS011;8335;42.646;23.380;2023-08-31T04:28:10;6.43;;;2.67;;
8279;SDS011;8335;42.646;23.380;2023-08-31T04:30:36;5.22;;;2.85;;
8279;SDS011;8335;42.646;23.380;2023-08-31T04:33:05;8.73;;;2.58;;
8279;SDS011;8335;42.646;23.380;2023-08-31T04:35:32;8.10;;;3.25;;
8279;SDS011;8335;42.646;23.380;2023-08-31T04:37:59;3.53;;;2.60;;
8279;SDS011;8335;42.646;23.380;2023-08-31T04:40:27;4.53;;;2.40;;
8279;SDS011;8335;42.646;23.380;2023-08-31T04:42:54;4.63;;;2.55;;
8279;SDS011;8335;42.646;23.380;2023-08-31T04:45:21;6.30;;;2.17;;
8279;SDS011;8335;42.646;23.380;2023-08-31T04:47:47;5.97;;;2.38;;
8279;SDS011;8335;42.646;23.380;2023-08-31T04:50:17;8.75;;;3.00;;
8279;SDS011;8335;42.646;23.380;2023-08-31T04:52:44;5.47;;;2.65;;
8279;SDS011;8335;42.646;23.380;2023-08-31T04:55:12;6.95;;;2.50;;
8279;SDS011;8335;42.646;23.380;2023-08-31T04:57:39;4.78;;;2.50;;
8279;SDS011;8335;42.646;23.380;2023-08-31T05:00:06;5.03;;;2.67;;
8279;SDS011;8335;42.646;23.380;2023-08-31T05:02:34;7.93;;;2.63;;
8279;SDS011;8335;42.646;23.380;2023-08-31T05:05:01;7.25;;;2.85;;
8279;SDS011;8335;42.646;23.380;2023-08-31T05:07:30;4.05;;;2.40;;
8279;SDS011;8335;42.646;23.380;2023-08-31T05:09:56;6.22;;;2.35;;
8279;SDS011;8335;42.646;23.380;2023-08-31T05:12:23;7.45;;;2.72;;
8279;SDS011;8335;42.646;23.380;2023-08-31T05:14:50;3.53;;;2.33;;
8279;SDS011;8335;42.646;23.380;2023-08-31T05:17:17;4.80;;;2.33;;
8279;SDS011;8335;42.646;23.380;2023-08-31T05:19:43;7.40;;;2.33;;
8279;SDS011;8335;42.646;23.380;2023-08-31T05:22:11;7.50;;;2.72;;
8279;SDS011;8335;42.646;23.380;2023-08-31T05:24:39;7.50;;;2.60;;
8279;SDS011;8335;42.646;23.380;2023-08-31T05:27:06;5.50;;;2.38;;
8279;SDS011;8335;42.646;23.380;2023-08-31T05:29:33;4.90;;;2.33;;
8279;SDS011;8335;42.646;23.380;2023-08-31T05:31:59;7.13;;;2.78;;
8279;SDS011;8335;42.646;23.380;2023-08-31T05:34:27;5.28;;;2.63;;
8279;SDS011;8335;42.646;23.380;2023-08-31T05:36:54;4.07;;;2.53;;
8279;SDS011;8335;42.646;23.380;2023-08-31T05:39:21;5.32;;;2.72;;
8279;SDS011;8335;42.646;23.380;2023-08-31T05:41:49;5.95;;;2.78;;
8279;SDS011;8335;42.646;23.380;2023-08-31T05:44:16;11.10;;;2.70;;
8279;SDS011;8335;42.646;23.380;2023-08-31T05:46:43;6.63;;;2.75;;
8279;SDS011;8335;42.646;23.380;2023-08-31T05:49:09;7.47;;;2.67;;
8279;SDS011;8335;42.646;23.380;2023-08-31T05:51:36;7.05;;;2.70;;
8279;SDS011;8335;42.646;23.380;2023-08-31T05:54:03;8.98;;;3.20;;
8279;SDS011;8335;42.646;23.380;2023-08-31T05:56:30;6.22;;;3.10;;
8279;SDS011;8335;42.646;23.380;2023-08-31T05:58:58;9.98;;;3.50;;
8279;SDS011;8335;42.646;23.380;2023-08-31T06:01:25;12.93;;;3.72;;
8279;SDS011;8335;42.646;23.380;2023-08-31T06:03:51;8.85;;;3.75;;
8279;SDS011;8335;42.646;23.380;2023-08-31T06:06:18;7.43;;;4.30;;
8279;SDS011;8335;42.646;23.380;2023-08-31T06:08:45;12.25;;;3.97;;
8279;SDS011;8335;42.646;23.380;2023-08-31T06:11:13;14.05;;;4.00;;
8279;SDS011;8335;42.646;23.380;2023-08-31T06:13:40;6.43;;;3.47;;
8279;SDS011;8335;42.646;23.380;2023-08-31T06:16:08;7.88;;;3.22;;
8279;SDS011;8335;42.646;23.380;2023-08-31T06:18:35;12.23;;;4.00;;
8279;SDS011;8335;42.646;23.380;2023-08-31T06:21:02;9.63;;;3.35;;
8279;SDS011;8335;42.646;23.380;2023-08-31T06:23:29;5.95;;;3.38;;
8279;SDS011;8335;42.646;23.380;2023-08-31T06:25:55;7.20;;;3.22;;
8279;SDS011;8335;42.646;23.380;2023-08-31T06:28:22;10.35;;;3.17;;
8279;SDS011;8335;42.646;23.380;2023-08-31T06:30:49;9.73;;;3.50;;
8279;SDS011;8335;42.646;23.380;2023-08-31T06:33:18;8.73;;;3.40;;
8279;SDS011;8335;42.646;23.380;2023-08-31T06:35:45;8.43;;;3.08;;
8279;SDS011;8335;42.646;23.380;2023-08-31T06:38:13;5.75;;;2.65;;
8279;SDS011;8335;42.646;23.380;2023-08-31T06:40:41;8.82;;;2.95;;
8279;SDS011;8335;42.646;23.380;2023-08-31T06:43:08;9.07;;;3.05;;
8279;SDS011;8335;42.646;23.380;2023-08-31T06:45:35;7.25;;;2.45;;
8279;SDS011;8335;42.646;23.380;2023-08-31T06:48:02;4.80;;;2.63;;
8279;SDS011;8335;42.646;23.380;2023-08-31T06:50:32;7.13;;;2.80;;
8279;SDS011;8335;42.646;23.380;2023-08-31T06:53:00;5.53;;;2.28;;
8279;SDS011;8335;42.646;23.380;2023-08-31T06:55:28;5.60;;;2.50;;
8279;SDS011;8335;42.646;23.380;2023-08-31T06:57:55;9.88;;;3.20;;
8279;SDS011;8335;42.646;23.380;2023-08-31T07:00:22;11.88;;;3.13;;
8279;SDS011;8335;42.646;23.380;2023-08-31T07:02:49;10.05;;;3.72;;
8279;SDS011;8335;42.646;23.380;2023-08-31T07:05:16;5.53;;;2.83;;
8279;SDS011;8335;42.646;23.380;2023-08-31T07:07:44;8.15;;;3.05;;
8279;SDS011;8335;42.646;23.380;2023-08-31T07:10:10;6.68;;;2.50;;
8279;SDS011;8335;42.646;23.380;2023-08-31T07:12:37;7.07;;;2.90;;
8279;SDS011;8335;42.646;23.380;2023-08-31T07:15:05;6.15;;;2.90;;
8279;SDS011;8335;42.646;23.380;2023-08-31T07:17:32;5.93;;;2.92;;
8279;SDS011;8335;42.646;23.380;2023-08-31T07:19:59;4.80;;;2.40;;
8279;SDS011;8335;42.646;23.380;2023-08-31T07:22:26;5.72;;;2.60;;
8279;SDS011;8335;42.646;23.380;2023-08-31T07:24:54;10.63;;;2.78;;
8279;SDS011;8335;42.646;23.380;2023-08-31T07:27:20;5.72;;;2.63;;
8279;SDS011;8335;42.646;23.380;2023-08-31T07:29:47;8.20;;;2.80;;
8279;SDS011;8335;42.646;23.380;2023-08-31T07:32:14;6.75;;;2.40;;
8279;SDS011;8335;42.646;23.380;2023-08-31T07:34:41;8.05;;;2.70;;
8279;SDS011;8335;42.646;23.380;2023-08-31T07:37:07;7.65;;;2.83;;
8279;SDS011;8335;42.646;23.380;2023-08-31T07:39:34;10.27;;;2.78;;
8279;SDS011;8335;42.646;23.380;2023-08-31T07:42:04;4.68;;;2.45;;
8279;SDS011;8335;42.646;23.380;2023-08-31T07:44:31;5.28;;;2.40;;
8279;SDS011;8335;42.646;23.380;2023-08-31T07:46:58;6.63;;;2.40;;
8279;SDS011;8335;42.646;23.380;2023-08-31T07:49:25;5.38;;;2.78;;
8279;SDS011;8335;42.646;23.380;2023-08-31T07:51:52;4.65;;;2.60;;
8279;SDS011;8335;42.646;23.380;2023-08-31T07:54:19;9.73;;;2.53;;
8279;SDS011;8335;42.646;23.380;2023-08-31T07:56:46;7.07;;;2.90;;
8279;SDS011;8335;42.646;23.380;2023-08-31T07:59:14;4.85;;;2.83;;
8279;SDS011;8335;42.646;23.380;2023-08-31T08:01:42;8.15;;;3.67;;
8279;SDS011;8335;42.646;23.380;2023-08-31T08:04:09;8.35;;;5.10;;
8279;SDS011;8335;42.646;23.380;2023-08-31T08:06:37;5.45;;;2.80;;
8279;SDS011;8335;42.646;23.380;2023-08-31T08:09:03;8.80;;;2.90;;
8279;SDS011;8335;42.646;23.380;2023-08-31T08:11:30;7.13;;;2.67;;
8279;SDS011;8335;42.646;23.380;2023-08-31T08:13:57;8.18;;;2.47;;
8279;SDS011;8335;42.646;23.380;2023-08-31T08:16:26;10.50;;;2.53;;
8279;SDS011;8335;42.646;23.380;2023-08-31T08:18:52;9.15;;;2.60;;
8279;SDS011;8335;42.646;23.380;2023-08-31T08:21:19;8.10;;;2.47;;
8279;SDS011;8335;42.646;23.380;2023-08-31T08:23:46;4.53;;;2.42;;
8279;SDS011;8335;42.646;23.380;2023-08-31T08:26:15;5.18;;;2.20;;
8279;SDS011;8335;42.646;23.380;2023-08-31T08:28:42;5.78;;;2.05;;
8279;SDS011;8335;42.646;23.380;2023-08-31T08:31:09;8.52;;;2.17;;
8279;SDS011;8335;42.646;23.380;2023-08-31T08:33:37;7.90;;;2.30;;
8279;SDS011;8335;42.646;23.380;2023-08-31T08:36:04;6.82;;;2.58;;
8279;SDS011;8335;42.646;23.380;2023-08-31T08:38:30;6.32;;;3.35;;
8279;SDS011;8335;42.646;23.380;2023-08-31T08:40:57;7.93;;;3.47;;
8279;SDS011;8335;42.646;23.380;2023-08-31T08:43:30;8.10;;;4.00;;
8279;SDS011;8335;42.646;23.380;2023-08-31T08:45:59;7.18;;;4.03;;
8279;SDS011;8335;42.646;23.380;2023-08-31T08:48:30;5.13;;;4.07;;
8279;SDS011;8335;42.646;23.380;2023-08-31T08:51:00;10.00;;;4.38;;
8279;SDS011;8335;42.646;23.380;2023-08-31T08:53:28;6.53;;;3.72;;
8279;SDS011;8335;42.646;23.380;2023-08-31T08:55:55;7.32;;;3.92;;
8279;SDS011;8335;42.646;23.380;2023-08-31T08:58:23;5.45;;;3.65;;
8279;SDS011;8335;42.646;23.380;2023-08-31T09:00:50;6.90;;;3.92;;
8279;SDS011;8335;42.646;23.380;2023-08-31T09:03:18;8.57;;;3.72;;
8279;SDS011;8335;42.646;23.380;2023-08-31T09:05:45;7.18;;;3.80;;
8279;SDS011;8335;42.646;23.380;2023-08-31T09:08:13;6.93;;;3.75;;
8279;SDS011;8335;42.646;23.380;2023-08-31T09:10:41;7.78;;;4.20;;
8279;SDS011;8335;42.646;23.380;2023-08-31T09:13:08;5.57;;;4.13;;
8279;SDS011;8335;42.646;23.380;2023-08-31T09:15:38;8.13;;;4.32;;
8279;SDS011;8335;42.646;23.380;2023-08-31T09:18:06;5.85;;;4.20;;
8279;SDS011;8335;42.646;23.380;2023-08-31T09:20:42;5.20;;;3.88;;
8279;SDS011;8335;42.646;23.380;2023-08-31T09:23:10;6.82;;;4.32;;
8279;SDS011;8335;42.646;23.380;2023-08-31T09:25:41;5.18;;;3.88;;
8279;SDS011;8335;42.646;23.380;2023-08-31T09:28:08;5.20;;;3.60;;
8279;SDS011;8335;42.646;23.380;2023-08-31T09:30:35;4.93;;;4.03;;
8279;SDS011;8335;42.646;23.380;2023-08-31T09:33:03;8.40;;;4.00;;
8279;SDS011;8335;42.646;23.380;2023-08-31T09:35:30;7.90;;;4.00;;
8279;SDS011;8335;42.646;23.380;2023-08-31T09:37:57;8.32;;;4.22;;
8279;SDS011;8335;42.646;23.380;2023-08-31T09:40:24;5.00;;;4.25;;
8279;SDS011;8335;42.646;23.380;2023-08-31T09:42:52;6.13;;;4.20;;
8279;SDS011;8335;42.646;23.380;2023-08-31T09:45:23;3.92;;;3.50;;
8279;SDS011;8335;42.646;23.380;2023-08-31T09:47:56;4.75;;;3.80;;
8279;SDS011;8335;42.646;23.380;2023-08-31T09:50:25;5.45;;;3.60;;
8279;SDS011;8335;42.646;23.380;2023-08-31T09:52:55;6.18;;;4.20;;
8279;SDS011;8335;42.646;23.380;2023-08-31T09:55:23;5.15;;;3.83;;
8279;SDS011;8335;42.646;23.380;2023-08-31T09:57:56;4.70;;;3.85;;
8279;SDS011;8335;42.646;23.380;2023-08-31T10:00:24;4.15;;;3.53;;
8279;SDS011;8335;42.646;23.380;2023-08-31T10:02:52;5.25;;;3.88;;
8279;SDS011;8335;42.646;23.380;2023-08-31T10:05:19;5.22;;;4.00;;
8279;SDS011;8335;42.646;23.380;2023-08-31T10:07:47;5.07;;;3.83;;
8279;SDS011;8335;42.646;23.380;2023-08-31T10:10:15;8.32;;;4.43;;
8279;SDS011;8335;42.646;23.380;2023-08-31T10:12:42;4.93;;;3.72;;
8279;SDS011;8335;42.646;23.380;2023-08-31T10:15:13;7.55;;;4.13;;
8279;SDS011;8335;42.646;23.380;2023-08-31T10:17:41;4.97;;;4.18;;
8279;SDS011;8335;42.646;23.380;2023-08-31T10:20:09;6.05;;;3.85;;
8279;SDS011;8335;42.646;23.380;2023-08-31T10:22:37;4.65;;;3.92;;
8279;SDS011;8335;42.646;23.380;2023-08-31T10:25:05;8.93;;;4.32;;
8279;SDS011;8335;42.646;23.380;2023-08-31T10:27:36;6.05;;;4.03;;
8279;SDS011;8335;42.646;23.380;2023-08-31T10:30:15;5.97;;;3.97;;
8279;SDS011;8335;42.646;23.380;2023-08-31T10:33:01;8.90;;;5.22;;
8279;SDS011;8335;42.646;23.380;2023-08-31T10:35:47;7.32;;;4.60;;
8279;SDS011;8335;42.646;23.380;2023-08-31T10:38:16;6.05;;;4.53;;
8279;SDS011;8335;42.646;23.380;2023-08-31T10:40:59;6.20;;;4.57;;
8279;SDS011;8335;42.646;23.380;2023-08-31T10:43:32;7.60;;;4.30;;
8279;SDS011;8335;42.646;23.380;2023-08-31T10:46:24;7.03;;;3.90;;
8279;SDS011;8335;42.646;23.380;2023-08-31T10:48:53;6.45;;;4.22;;
8279;SDS011;8335;42.646;23.380;2023-08-31T10:51:24;6.43;;;4.00;;
8279;SDS011;8335;42.646;23.380;2023-08-31T10:53:53;7.68;;;4.32;;
8279;SDS011;8335;42.646;23.380;2023-08-31T10:56:30;6.30;;;4.15;;
8279;SDS011;8335;42.646;23.380;2023-08-31T10:58:58;8.88;;;4.60;;
8279;SDS011;8335;42.646;23.380;2023-08-31T11:04:21;6.32;;;4.30;;
8279;SDS011;8335;42.646;23.380;2023-08-31T11:06:49;6.07;;;4.57;;
8279;SDS011;8335;42.646;23.380;2023-08-31T11:09:34;7.93;;;4.55;;
8279;SDS011;8335;42.646;23.380;2023-08-31T11:12:01;8.32;;;4.00;;
8279;SDS011;8335;42.646;23.380;2023-08-31T11:14:29;4.80;;;3.80;;
8279;SDS011;8335;42.646;23.380;2023-08-31T11:16:57;6.97;;;4.10;;
8279;SDS011;8335;42.646;23.380;2023-08-31T11:19:25;7.25;;;4.13;;
8279;SDS011;8335;42.646;23.380;2023-08-31T11:21:52;6.60;;;4.20;;
8279;SDS011;8335;42.646;23.380;2023-08-31T11:24:20;5.95;;;4.00;;
8279;SDS011;8335;42.646;23.380;2023-08-31T11:26:47;6.28;;;3.63;;
8279;SDS011;8335;42.646;23.380;2023-08-31T11:29:14;7.38;;;4.10;;
8279;SDS011;8335;42.646;23.380;2023-08-31T11:31:41;5.80;;;3.75;;
8279;SDS011;8335;42.646;23.380;2023-08-31T11:34:13;6.60;;;4.07;;
8279;SDS011;8335;42.646;23.380;2023-08-31T11:36:40;12.57;;;4.05;;
8279;SDS011;8335;42.646;23.380;2023-08-31T11:39:08;5.88;;;4.20;;
8279;SDS011;8335;42.646;23.380;2023-08-31T11:41:36;8.98;;;3.85;;
8279;SDS011;8335;42.646;23.380;2023-08-31T11:44:06;10.27;;;4.20;;
8279;SDS011;8335;42.646;23.380;2023-08-31T11:46:34;6.90;;;4.00;;
8279;SDS011;8335;42.646;23.380;2023-08-31T11:49:01;6.50;;;4.32;;
8279;SDS011;8335;42.646;23.380;2023-08-31T11:51:31;4.50;;;3.10;;
8279;SDS011;8335;42.646;23.380;2023-08-31T11:53:59;5.13;;;3.28;;
8279;SDS011;8335;42.646;23.380;2023-08-31T11:56:28;9.63;;;3.75;;
8279;SDS011;8335;42.646;23.380;2023-08-31T11:59:07;6.40;;;3.67;;
8279;SDS011;8335;42.646;23.380;2023-08-31T12:01:40;6.00;;;3.17;;
8279;SDS011;8335;42.646;23.380;2023-08-31T12:04:10;8.45;;;3.75;;
8279;SDS011;8335;42.646;23.380;2023-08-31T12:06:41;5.68;;;3.15;;
8279;SDS011;8335;42.646;23.380;2023-08-31T12:09:12;6.95;;;3.58;;
8279;SDS011;8335;42.646;23.380;2023-08-31T12:11:39;5.13;;;3.28;;
8279;SDS011;8335;42.646;23.380;2023-08-31T12:14:17;4.70;;;3.10;;
8279;SDS011;8335;42.646;23.380;2023-08-31T12:16:45;8.15;;;3.40;;
8279;SDS011;8335;42.646;23.380;2023-08-31T12:19:12;6.32;;;3.42;;
8279;SDS011;8335;42.646;23.380;2023-08-31T12:21:38;4.32;;;3.17;;
8279;SDS011;8335;42.646;23.380;2023-08-31T12:24:07;5.88;;;3.28;;
8279;SDS011;8335;42.646;23.380;2023-08-31T12:26:34;4.18;;;3.20;;
8279;SDS011;8335;42.646;23.380;2023-08-31T12:29:01;4.45;;;3.05;;
8279;SDS011;8335;42.646;23.380;2023-08-31T12:31:29;6.20;;;3.35;;
8279;SDS011;8335;42.646;23.380;2023-08-31T12:33:56;5.20;;;3.08;;
8279;SDS011;8335;42.646;23.380;2023-08-31T12:36:23;5.20;;;3.28;;
8279;SDS011;8335;42.646;23.380;2023-08-31T12:38:49;6.65;;;3.60;;
8279;SDS011;8335;42.646;23.380;2023-08-31T12:41:18;6.55;;;3.13;;
8279;SDS011;8335;42.646;23.380;2023-08-31T12:43:45;5.63;;;3.45;;
8279;SDS011;8335;42.646;23.380;2023-08-31T12:46:12;4.70;;;2.80;;
8279;SDS011;8335;42.646;23.380;2023-08-31T12:48:39;5.10;;;2.83;;
8279;SDS011;8335;42.646;23.380;2023-08-31T12:51:05;5.70;;;3.47;;
8279;SDS011;8335;42.646;23.380;2023-08-31T12:53:32;5.85;;;3.03;;
8279;SDS011;8335;42.646;23.380;2023-08-31T12:56:04;4.47;;;3.50;;
8279;SDS011;8335;42.646;23.380;2023-08-31T12:58:32;5.03;;;3.17;;
8279;SDS011;8335;42.646;23.380;2023-08-31T13:00:59;4.53;;;3.00;;
8279;SDS011;8335;42.646;23.380;2023-08-31T13:03:26;7.13;;;3.30;;
8279;SDS011;8335;42.646;23.380;2023-08-31T13:05:53;6.35;;;3.50;;
8279;SDS011;8335;42.646;23.380;2023-08-31T13:08:19;6.32;;;3.85;;
8279;SDS011;8335;42.646;23.380;2023-08-31T13:10:50;5.50;;;3.25;;
8279;SDS011;8335;42.646;23.380;2023-08-31T13:13:18;8.63;;;3.50;;
8279;SDS011;8335;42.646;23.380;2023-08-31T13:15:46;7.57;;;3.15;;
8279;SDS011;8335;42.646;23.380;2023-08-31T13:18:13;5.30;;;3.30;;
8279;SDS011;8335;42.646;23.380;2023-08-31T13:20:40;7.43;;;3.50;;
8279;SDS011;8335;42.646;23.380;2023-08-31T13:23:14;4.88;;;2.80;;
8279;SDS011;8335;42.646;23.380;2023-08-31T13:25:42;7.45;;;3.10;;
8279;SDS011;8335;42.646;23.380;2023-08-31T13:28:08;5.15;;;3.08;;
8279;SDS011;8335;42.646;23.380;2023-08-31T13:30:35;8.75;;;3.30;;
8279;SDS011;8335;42.646;23.380;2023-08-31T13:33:03;5.70;;;3.17;;
8279;SDS011;8335;42.646;23.380;2023-08-31T13:35:30;5.90;;;3.30;;
8279;SDS011;8335;42.646;23.380;2023-08-31T13:37:57;9.65;;;4.03;;
8279;SDS011;8335;42.646;23.380;2023-08-31T13:40:24;5.90;;;2.95;;
8279;SDS011;8335;42.646;23.380;2023-08-31T13:42:53;4.50;;;2.97;;
8279;SDS011;8335;42.646;23.380;2023-08-31T13:45:22;7.25;;;3.25;;
8279;SDS011;8335;42.646;23.380;2023-08-31T13:47:49;6.85;;;3.30;;
8279;SDS011;8335;42.646;23.380;2023-08-31T13:50:17;5.38;;;3.20;;
8279;SDS011;8335;42.646;23.380;2023-08-31T13:52:44;5.75;;;3.42;;
8279;SDS011;8335;42.646;23.380;2023-08-31T13:55:11;7.03;;;3.20;;
8279;SDS011;8335;42.646;23.380;2023-08-31T13:57:38;3.50;;;2.45;;
8279;SDS011;8335;42.646;23.380;2023-08-31T14:00:05;4.50;;;2.88;;
8279;SDS011;8335;42.646;23.380;2023-08-31T14:02:34;4.13;;;3.00;;
8279;SDS011;8335;42.646;23.380;2023-08-31T14:05:02;5.30;;;2.80;;
8279;SDS011;8335;42.646;23.380;2023-08-31T14:07:30;6.45;;;3.28;;
8279;SDS011;8335;42.646;23.380;2023-08-31T14:09:57;5.15;;;3.17;;
8279;SDS011;8335;42.646;23.380;2023-08-31T14:12:24;6.35;;;2.90;;
8279;SDS011;8335;42.646;23.380;2023-08-31T14:14:51;5.78;;;3.15;;
8279;SDS011;8335;42.646;23.380;2023-08-31T14:17:17;6.00;;;3.05;;
8279;SDS011;8335;42.646;23.380;2023-08-31T14:19:44;5.90;;;2.78;;
8279;SDS011;8335;42.646;23.380;2023-08-31T14:22:11;6.25;;;2.90;;
8279;SDS011;8335;42.646;23.380;2023-08-31T14:24:39;7.60;;;3.42;;
8279;SDS011;8335;42.646;23.380;2023-08-31T14:27:06;4.75;;;2.80;;
8279;SDS011;8335;42.646;23.380;2023-08-31T14:29:33;5.03;;;2.60;;
8279;SDS011;8335;42.646;23.380;2023-08-31T14:32:00;5.40;;;2.55;;
8279;SDS011;8335;42.646;23.380;2023-08-31T14:34:27;6.10;;;2.90;;
8279;SDS011;8335;42.646;23.380;2023-08-31T14:36:54;10.18;;;3.30;;
8279;SDS011;8335;42.646;23.380;2023-08-31T14:39:22;12.82;;;3.70;;
8279;SDS011;8335;42.646;23.380;2023-08-31T14:41:51;7.80;;;3.67;;
8279;SDS011;8335;42.646;23.380;2023-08-31T14:44:18;7.85;;;3.50;;
8279;SDS011;8335;42.646;23.380;2023-08-31T14:46:44;6.47;;;3.38;;
8279;SDS011;8335;42.646;23.380;2023-08-31T14:49:11;8.30;;;3.42;;
8279;SDS011;8335;42.646;23.380;2023-08-31T14:51:38;6.80;;;3.28;;
8279;SDS011;8335;42.646;23.380;2023-08-31T14:54:05;6.90;;;3.10;;
8279;SDS011;8335;42.646;23.380;2023-08-31T14:56:32;7.43;;;3.30;;
8279;SDS011;8335;42.646;23.380;2023-08-31T14:59:00;6.45;;;3.33;;
8279;SDS011;8335;42.646;23.380;2023-08-31T15:01:27;7.38;;;3.38;;
8279;SDS011;8335;42.646;23.380;2023-08-31T15:03:54;8.00;;;3.20;;
8279;SDS011;8335;42.646;23.380;2023-08-31T15:06:20;5.10;;;3.10;;
8279;SDS011;8335;42.646;23.380;2023-08-31T15:08:47;5.78;;;3.40;;